Time;durP1;ratioP1;P1;durP2;ratioP2;P2;SDS_P1;SDS_P2;PMS_P1;PMS_P2;Temp;Humidity;BMP_temperature;BMP_pressure;BME280_temperature;BME280_humidity;BME280_pressure;Samples;Min_cycle;Max_cycle;Signal;HPM_P1;HPM_P2
2024/03/01 00:01:17;;;;;;;9.50;7.22;;;12.90;93.20;;;;;;5103161;28;20039;-69
2024/03/01 00:03:45;;;;;;;9.85;7.05;;;12.90;93.50;;;;;;5087363;28;20154;-69
2024/03/01 00:06:14;;;;;;;11.80;7.65;;;12.80;93.60;;;;;;5103491;28;20779;-70
2024/03/01 00:08:42;;;;;;;11.00;6.95;;;12.80;93.70;;;;;;5105951;28;20110;-72
2024/03/01 00:11:09;;;;;;;11.70;7.18;;;12.70;93.70;;;;;;5103479;28;20123;-71
2024/03/01 00:13:36;;;;;;;10.48;7.45;;;12.70;94.00;;;;;;5104995;28;20035;-69
2024/03/01 00:16:05;;;;;;;11.93;7.65;;;12.60;93.80;;;;;;5089611;28;20388;-70
2024/03/01 00:18:33;;;;;;;9.43;7.20;;;12.70;93.90;;;;;;5105146;28;20032;-70
2024/03/01 00:21:01;;;;;;;10.23;7.38;;;12.60;94.20;;;;;;5105005;28;20085;-71
2024/03/01 00:23:28;;;;;;;9.75;7.07;;;12.60;94.30;;;;;;5083862;28;20032;-72
2024/03/01 00:25:56;;;;;;;79.60;46.08;;;12.60;94.50;;;;;;5107791;28;20436;-72
2024/03/01 00:28:23;;;;;;;14.90;10.23;;;12.70;94.60;;;;;;5096520;28;20042;-69
2024/03/01 00:30:51;;;;;;;9.88;6.70;;;12.60;94.40;;;;;;5080087;28;20136;-73
2024/03/01 00:33:20;;;;;;;9.45;6.95;;;12.50;94.50;;;;;;5088718;28;20093;-72
2024/03/01 00:35:48;;;;;;;9.95;6.88;;;12.50;94.50;;;;;;5091874;28;20077;-71
2024/03/01 00:38:15;;;;;;;9.65;7.57;;;12.50;94.40;;;;;;5102268;28;20044;-72
2024/03/01 00:40:43;;;;;;;11.15;8.10;;;12.60;94.20;;;;;;5057435;28;20035;-71
2024/03/01 00:43:10;;;;;;;13.70;7.68;;;12.50;94.10;;;;;;5103340;28;20048;-71
2024/03/01 00:45:39;;;;;;;10.18;7.10;;;12.50;94.20;;;;;;5101164;28;20394;-70
2024/03/01 00:48:08;;;;;;;11.88;7.88;;;12.50;94.10;;;;;;5098654;28;20062;-70
2024/03/01 00:50:37;;;;;;;11.40;7.47;;;12.50;94.10;;;;;;5099589;28;20383;-72
2024/03/01 00:53:05;;;;;;;14.65;7.90;;;12.50;94.00;;;;;;5104017;28;20131;-71
2024/03/01 00:55:34;;;;;;;10.73;7.82;;;12.50;94.00;;;;;;5100477;28;20040;-71
2024/03/01 00:58:03;;;;;;;10.10;7.40;;;12.40;94.20;;;;;;5105021;28;20043;-71
2024/03/01 01:00:31;;;;;;;9.63;7.57;;;12.40;94.10;;;;;;5085183;28;20040;-72
2024/03/01 01:02:59;;;;;;;10.27;7.53;;;12.50;94.00;;;;;;5106952;28;20407;-72
2024/03/01 01:05:31;;;;;;;9.57;7.15;;;12.50;93.90;;;;;;5105563;28;20032;-68
2024/03/01 01:08:01;;;;;;;10.77;7.25;;;12.50;94.00;;;;;;5102658;28;20043;-69
2024/03/01 01:10:31;;;;;;;11.32;8.75;;;12.40;94.20;;;;;;5107313;28;20034;-70
2024/03/01 01:12:59;;;;;;;8.65;6.97;;;12.50;93.90;;;;;;5103351;28;20129;-70
2024/03/01 01:15:27;;;;;;;8.75;7.43;;;12.50;93.90;;;;;;5106077;28;20046;-70
2024/03/01 01:17:54;;;;;;;10.68;7.30;;;12.50;93.80;;;;;;5106501;28;20441;-69
2024/03/01 01:20:22;;;;;;;9.40;7.15;;;12.50;93.70;;;;;;5104352;28;20036;-70
2024/03/01 01:22:51;;;;;;;10.90;8.05;;;12.50;93.30;;;;;;5100955;28;20113;-70
2024/03/01 01:25:18;;;;;;;9.57;7.22;;;12.60;93.40;;;;;;5106970;28;20035;-69
2024/03/01 01:27:46;;;;;;;9.93;7.40;;;12.50;93.40;;;;;;5107652;28;20042;-71
2024/03/01 01:30:13;;;;;;;9.85;7.32;;;12.50;93.50;;;;;;5090375;28;20085;-69
2024/03/01 01:32:41;;;;;;;14.15;7.40;;;12.50;93.60;;;;;;5106654;28;20118;-72
2024/03/01 01:35:08;;;;;;;11.52;7.75;;;12.50;93.80;;;;;;5095465;28;20043;-71
2024/03/01 01:37:36;;;;;;;9.25;7.18;;;12.50;93.70;;;;;;5101724;28;20533;-70
2024/03/01 01:40:05;;;;;;;10.70;7.93;;;12.50;93.50;;;;;;5102458;28;20489;-72
2024/03/01 01:42:32;;;;;;;10.07;7.20;;;12.60;93.40;;;;;;5076202;28;20040;-71
2024/03/01 01:44:59;;;;;;;9.35;7.43;;;12.60;93.50;;;;;;5096669;28;20032;-70
2024/03/01 01:47:27;;;;;;;10.10;7.35;;;12.50;93.50;;;;;;5102511;28;20036;-71
2024/03/01 01:49:55;;;;;;;8.65;7.20;;;12.50;93.50;;;;;;5103095;28;20561;-70
2024/03/01 01:52:25;;;;;;;9.00;6.97;;;12.50;93.30;;;;;;5104316;28;20444;-70
2024/03/01 01:54:53;;;;;;;13.02;7.40;;;12.50;93.50;;;;;;5103259;28;20043;-70
2024/03/01 01:57:21;;;;;;;11.43;7.30;;;12.40;93.70;;;;;;5107053;28;20034;-71
2024/03/01 01:59:51;;;;;;;12.00;7.22;;;12.40;93.70;;;;;;5088674;28;20048;-73
2024/03/01 02:02:19;;;;;;;10.93;7.25;;;12.40;93.80;;;;;;5102682;28;20097;-70
2024/03/01 02:04:48;;;;;;;10.27;7.57;;;12.40;93.80;;;;;;5106521;28;20392;-71
2024/03/01 02:07:16;;;;;;;11.80;8.48;;;12.50;93.80;;;;;;5105958;28;20118;-70
2024/03/01 02:09:45;;;;;;;10.88;8.07;;;12.40;93.80;;;;;;5104163;28;20036;-72
2024/03/01 02:12:14;;;;;;;10.07;8.13;;;12.40;93.90;;;;;;5108334;28;20104;-70
2024/03/01 02:14:45;;;;;;;9.70;7.40;;;12.40;93.90;;;;;;5105457;28;20124;-71
2024/03/01 02:17:12;;;;;;;13.70;7.90;;;12.40;93.80;;;;;;5089914;28;20122;-71
2024/03/01 02:19:39;;;;;;;9.43;7.57;;;12.50;93.90;;;;;;5112341;28;20093;-70
2024/03/01 02:22:11;;;;;;;12.55;8.23;;;12.40;94.00;;;;;;5109180;28;20486;-70
2024/03/01 02:24:39;;;;;;;10.18;7.70;;;12.50;94.00;;;;;;5108912;28;20552;-69
2024/03/01 02:27:06;;;;;;;11.43;8.10;;;12.40;94.20;;;;;;5111449;28;20044;-71
2024/03/01 02:29:33;;;;;;;11.88;8.15;;;12.40;94.20;;;;;;5112519;28;20038;-70
2024/03/01 02:32:01;;;;;;;12.30;8.20;;;12.30;94.20;;;;;;5109223;28;20031;-71
2024/03/01 02:34:28;;;;;;;8.43;7.05;;;12.40;94.20;;;;;;5112995;28;20052;-71
2024/03/01 02:36:56;;;;;;;10.73;7.55;;;12.40;94.00;;;;;;5109020;28;20059;-70
2024/03/01 02:39:25;;;;;;;9.50;7.30;;;12.40;93.80;;;;;;5110495;28;20525;-71
2024/03/01 02:41:52;;;;;;;9.07;7.10;;;12.30;93.80;;;;;;5090831;28;20047;-71
2024/03/01 02:44:20;;;;;;;8.77;6.65;;;12.40;93.50;;;;;;5108382;28;20118;-72
2024/03/01 02:46:47;;;;;;;8.98;6.63;;;12.40;93.30;;;;;;5107960;28;20534;-71
2024/03/01 02:49:15;;;;;;;9.60;6.70;;;12.40;93.20;;;;;;5111303;28;20043;-70
2024/03/01 02:51:42;;;;;;;11.93;7.35;;;12.50;93.20;;;;;;5110555;28;20397;-70
2024/03/01 02:54:09;;;;;;;11.20;6.28;;;12.40;93.50;;;;;;5107473;28;20171;-72
2024/03/01 02:56:37;;;;;;;11.00;6.78;;;12.40;93.60;;;;;;5109389;28;20027;-72
2024/03/01 02:59:04;;;;;;;9.20;6.93;;;12.40;93.60;;;;;;5110316;28;20449;-70
2024/03/01 03:01:32;;;;;;;8.02;6.18;;;12.40;93.30;;;;;;5088364;28;21198;-71
2024/03/01 03:03:59;;;;;;;9.30;6.88;;;12.50;93.30;;;;;;5112599;28;20043;-72
2024/03/01 03:06:27;;;;;;;10.90;6.13;;;12.40;93.50;;;;;;5105217;28;20093;-71
2024/03/01 03:08:54;;;;;;;8.30;6.32;;;12.50;93.10;;;;;;5108834;28;20067;-70
2024/03/01 03:11:21;;;;;;;10.68;6.53;;;12.40;93.50;;;;;;5108381;27;20050;-71
2024/03/01 03:13:49;;;;;;;9.43;6.30;;;12.50;93.60;;;;;;5112273;28;20043;-70
2024/03/01 03:16:17;;;;;;;10.65;6.68;;;12.50;93.90;;;;;;5108274;28;20051;-70
2024/03/01 03:18:44;;;;;;;7.68;6.30;;;12.40;93.90;;;;;;5092248;28;20058;-70
2024/03/01 03:21:12;;;;;;;10.02;7.43;;;12.40;93.80;;;;;;5110387;28;20043;-70
2024/03/01 03:23:40;;;;;;;10.50;7.20;;;12.40;94.00;;;;;;5107952;28;20070;-71
2024/03/01 03:26:07;;;;;;;11.05;6.82;;;12.30;94.50;;;;;;5107440;28;20093;-71
2024/03/01 03:28:34;;;;;;;10.93;7.40;;;12.40;94.20;;;;;;5092558;28;20466;-71
2024/03/01 03:31:02;;;;;;;8.45;7.03;;;12.30;94.40;;;;;;5105587;28;20039;-71
2024/03/01 03:33:30;;;;;;;10.85;7.47;;;12.30;94.70;;;;;;5108983;28;20138;-71
2024/03/01 03:35:58;;;;;;;9.65;7.68;;;12.30;94.60;;;;;;5104124;28;20053;-70
2024/03/01 03:38:25;;;;;;;10.82;7.22;;;12.30;94.80;;;;;;5087653;28;20042;-70
2024/03/01 03:40:54;;;;;;;11.63;7.32;;;12.30;94.80;;;;;;5110379;28;20049;-71
2024/03/01 03:43:21;;;;;;;11.68;7.30;;;12.20;95.00;;;;;;5106868;28;20044;-70
2024/03/01 03:45:49;;;;;;;11.15;7.45;;;12.20;95.20;;;;;;5089761;28;20136;-71
2024/03/01 03:48:16;;;;;;;13.18;8.13;;;12.20;95.40;;;;;;5111721;28;20126;-70
2024/03/01 03:50:44;;;;;;;13.32;7.95;;;12.20;95.50;;;;;;5110560;28;20483;-71
2024/03/01 03:53:11;;;;;;;10.52;7.68;;;12.10;95.80;;;;;;5110281;28;20487;-72
2024/03/01 03:55:38;;;;;;;13.40;9.52;;;12.10;95.90;;;;;;5109345;28;20058;-71
2024/03/01 03:58:07;;;;;;;21.05;12.85;;;12.20;95.70;;;;;;5109434;28;20062;-70
2024/03/01 04:00:35;;;;;;;15.68;10.73;;;12.20;95.80;;;;;;5107840;28;20036;-70
2024/03/01 04:03:03;;;;;;;12.85;8.60;;;12.20;95.70;;;;;;5109104;28;20126;-71
2024/03/01 04:05:30;;;;;;;10.02;7.78;;;12.20;95.60;;;;;;5110098;28;20035;-70
2024/03/01 04:07:58;;;;;;;11.60;7.78;;;12.20;95.50;;;;;;5104056;28;20043;-70
2024/03/01 04:10:25;;;;;;;12.18;7.20;;;12.20;95.60;;;;;;5104931;28;20393;-70
2024/03/01 04:12:52;;;;;;;12.25;7.47;;;12.20;95.60;;;;;;5105466;28;20050;-72
2024/03/01 04:15:22;;;;;;;10.05;7.22;;;12.20;95.70;;;;;;5105317;28;20048;-70
2024/03/01 04:17:49;;;;;;;13.25;7.57;;;12.10;95.90;;;;;;5104784;28;20040;-70
2024/03/01 04:20:16;;;;;;;9.82;7.60;;;12.20;95.70;;;;;;5105114;28;20036;-69
2024/03/01 04:22:44;;;;;;;10.68;7.47;;;12.20;95.70;;;;;;5108515;28;20112;-69
2024/03/01 04:25:11;;;;;;;10.07;7.13;;;12.20;95.50;;;;;;5066202;28;20048;-70
2024/03/01 04:27:38;;;;;;;12.70;8.07;;;12.20;95.60;;;;;;5105303;28;20040;-71
2024/03/01 04:30:09;;;;;;;11.95;7.25;;;12.20;95.60;;;;;;5108630;28;20040;-70
2024/03/01 04:32:36;;;;;;;;;;;12.20;95.70;;;;;;5084140;28;20043;-70
2024/03/01 04:35:05;;;;;;;12.23;7.88;;;12.20;95.50;;;;;;5103158;28;19920;-70
2024/03/01 04:37:33;;;;;;;11.88;8.00;;;12.20;95.40;;;;;;5107258;28;20040;-71
2024/03/01 04:40:01;;;;;;;12.95;8.07;;;12.20;95.60;;;;;;5108681;28;20077;-69
2024/03/01 04:42:29;;;;;;;9.68;7.20;;;12.20;95.50;;;;;;5105662;28;20402;-70
2024/03/01 04:44:56;;;;;;;11.55;7.32;;;12.20;95.50;;;;;;5104174;28;20047;-70
2024/03/01 04:47:23;;;;;;;14.50;8.32;;;12.10;95.80;;;;;;5089952;28;20041;-69
2024/03/01 04:49:50;;;;;;;10.23;7.45;;;12.00;96.40;;;;;;5108584;28;20081;-71
2024/03/01 04:52:18;;;;;;;10.18;7.65;;;12.10;96.00;;;;;;5109190;28;20119;-69
2024/03/01 04:54:47;;;;;;;10.65;7.47;;;12.10;95.60;;;;;;5106291;28;20123;-71
2024/03/01 04:57:14;;;;;;;12.05;7.90;;;12.20;95.40;;;;;;5106899;28;20061;-71
2024/03/01 04:59:42;;;;;;;11.60;8.07;;;12.20;95.50;;;;;;5091487;28;20035;-70
2024/03/01 05:02:09;;;;;;;10.50;7.65;;;12.20;95.80;;;;;;5107654;28;20483;-69
2024/03/01 05:04:36;;;;;;;13.20;8.68;;;12.20;96.10;;;;;;5089255;28;20039;-73
2024/03/01 05:07:09;;;;;;;10.25;7.85;;;12.10;96.40;;;;;;5109816;28;20498;-70
2024/03/01 05:09:38;;;;;;;14.50;8.65;;;12.10;97.00;;;;;;5103625;28;20101;-72
2024/03/01 05:12:13;;;;;;;11.57;8.88;;;12.00;97.30;;;;;;5108900;27;20048;-68
2024/03/01 05:14:42;;;;;;;15.85;9.23;;;11.80;98.70;;;;;;5078600;28;20079;-71
2024/03/01 05:17:11;;;;;;;12.45;9.05;;;11.70;99.00;;;;;;5102005;28;20206;-71
2024/03/01 05:19:40;;;;;;;13.02;8.93;;;11.40;99.80;;;;;;5104288;28;20053;-69
2024/03/01 05:22:12;;;;;;;11.88;9.50;;;11.40;99.90;;;;;;5109202;28;20117;-69
2024/03/01 05:24:40;;;;;;;13.93;9.98;;;11.20;99.90;;;;;;5066457;28;20036;-71
2024/03/01 05:27:14;;;;;;;12.48;9.13;;;11.10;99.90;;;;;;5102417;28;20468;-70
2024/03/01 05:29:42;;;;;;;13.23;9.18;;;11.10;99.90;;;;;;5100537;28;20036;-71
2024/03/01 05:32:09;;;;;;;13.10;8.55;;;11.00;99.90;;;;;;5104925;28;20135;-71
2024/03/01 05:34:37;;;;;;;12.75;9.35;;;11.10;99.90;;;;;;5098191;28;20035;-71
2024/03/01 05:37:06;;;;;;;13.45;9.43;;;11.30;99.90;;;;;;5098410;28;20044;-71
2024/03/01 05:39:34;;;;;;;12.73;8.73;;;11.30;99.90;;;;;;5103528;28;20107;-71
2024/03/01 05:42:01;;;;;;;11.52;9.23;;;11.30;99.90;;;;;;5092070;28;20043;-70
2024/03/01 05:44:29;;;;;;;10.85;9.55;;;11.30;99.90;;;;;;5100394;28;20040;-70
2024/03/01 05:46:56;;;;;;;12.57;9.27;;;11.40;99.90;;;;;;5103295;28;20097;-71
2024/03/01 05:49:23;;;;;;;13.80;9.55;;;11.50;99.90;;;;;;5102122;28;20039;-70
2024/03/01 05:51:51;;;;;;;13.32;10.57;;;11.60;99.90;;;;;;5089836;28;20043;-70
2024/03/01 05:54:24;;;;;;;15.25;10.60;;;11.60;99.90;;;;;;5103249;28;20043;-70
2024/03/01 05:56:52;;;;;;;14.00;10.35;;;11.70;99.90;;;;;;5102720;27;20051;-71
2024/03/01 05:59:22;;;;;;;14.25;9.98;;;11.70;99.90;;;;;;5116674;27;20136;-71
2024/03/01 06:01:50;;;;;;;;;;;11.70;99.90;;;;;;5113414;27;20402;-72
2024/03/01 06:04:20;;;;;;;12.75;9.38;;;11.70;99.90;;;;;;5116642;27;19986;-72
2024/03/01 06:06:48;;;;;;;16.05;9.45;;;11.70;99.90;;;;;;5111384;28;20382;-70
2024/03/01 06:09:17;;;;;;;16.20;10.25;;;11.60;99.90;;;;;;5100518;28;20107;-71
2024/03/01 06:11:45;;;;;;;12.98;10.23;;;11.50;99.90;;;;;;5108106;28;20054;-72
2024/03/01 06:14:13;;;;;;;25.27;17.60;;;11.20;99.90;;;;;;5088216;28;20071;-68
2024/03/01 06:16:40;;;;;;;41.97;26.98;;;11.70;99.90;;;;;;5110378;28;20081;-73
2024/03/01 06:19:07;;;;;;;36.03;22.58;;;11.90;99.90;;;;;;5099161;28;20047;-71
2024/03/01 06:21:35;;;;;;;16.92;11.77;;;12.10;99.90;;;;;;5108229;28;20036;-72
2024/03/01 06:24:02;;;;;;;14.02;10.45;;;12.10;99.90;;;;;;5096396;27;20113;-71
2024/03/01 06:26:31;;;;;;;14.73;10.88;;;12.20;99.90;;;;;;5105771;27;20029;-68
2024/03/01 06:28:58;;;;;;;12.48;10.05;;;12.30;99.90;;;;;;5113299;27;20036;-69
2024/03/01 06:31:25;;;;;;;21.88;14.82;;;12.50;99.90;;;;;;5098940;28;20043;-72
2024/03/01 06:33:53;;;;;;;20.80;14.30;;;12.50;99.90;;;;;;5108658;28;20050;-69
2024/03/01 06:36:20;;;;;;;32.92;20.65;;;12.40;99.90;;;;;;5107199;28;20031;-68
2024/03/01 06:38:48;;;;;;;19.48;13.57;;;12.50;99.90;;;;;;5106009;28;20039;-68
2024/03/01 06:41:15;;;;;;;17.15;11.82;;;12.60;99.90;;;;;;5108140;28;20062;-70
2024/03/01 06:43:42;;;;;;;14.35;10.00;;;12.60;99.90;;;;;;5112233;27;20036;-69
2024/03/01 06:46:10;;;;;;;14.30;9.85;;;12.70;99.90;;;;;;5109016;28;20046;-69
2024/03/01 06:48:37;;;;;;;12.98;9.95;;;12.50;99.90;;;;;;5102034;28;20039;-68
2024/03/01 06:51:05;;;;;;;14.13;9.90;;;12.40;99.90;;;;;;5109362;28;20541;-69
2024/03/01 06:53:32;;;;;;;15.45;10.23;;;12.30;99.90;;;;;;5101002;28;20115;-69
2024/03/01 06:56:04;;;;;;;16.52;9.23;;;12.20;99.90;;;;;;5102360;28;20104;-69
2024/03/01 06:58:32;;;;;;;;;;;12.30;99.90;;;;;;5103319;28;20065;-72
2024/03/01 07:01:04;;;;;;;48.10;31.63;;;12.30;99.90;;;;;;5106723;28;20382;-68
2024/03/01 07:03:37;;;;;;;29.25;21.38;;;12.50;99.90;;;;;;5088465;28;20058;-73
2024/03/01 07:06:06;;;;;;;17.42;11.82;;;12.90;99.90;;;;;;5086931;28;20035;-70
2024/03/01 07:08:33;;;;;;;13.48;9.45;;;12.70;99.90;;;;;;5101886;28;20038;-69
2024/03/01 07:11:03;;;;;;;14.68;10.05;;;12.60;99.90;;;;;;5107484;28;20402;-70
2024/03/01 07:13:30;;;;;;;14.93;9.48;;;12.40;99.90;;;;;;5105882;28;20040;-72
2024/03/01 07:15:58;;;;;;;13.02;9.48;;;12.30;99.90;;;;;;5092585;28;20097;-71
2024/03/01 07:18:25;;;;;;;15.77;9.88;;;12.30;99.90;;;;;;5108763;28;20124;-71
2024/03/01 07:20:52;;;;;;;12.55;9.75;;;12.10;99.90;;;;;;5092066;28;20097;-72
2024/03/01 07:23:20;;;;;;;14.68;9.60;;;12.20;99.90;;;;;;5108283;28;20036;-71
2024/03/01 07:25:47;;;;;;;10.82;9.15;;;12.10;99.90;;;;;;5105375;28;20481;-72
2024/03/01 07:28:14;;;;;;;13.20;9.02;;;12.20;99.90;;;;;;5104094;28;20067;-72
2024/03/01 07:30:43;;;;;;;12.45;8.43;;;12.10;99.90;;;;;;5109034;28;20032;-72
2024/03/01 07:33:10;;;;;;;14.55;9.35;;;12.00;99.90;;;;;;5107658;28;20444;-73
2024/03/01 07:35:38;;;;;;;10.15;7.95;;;11.90;99.90;;;;;;5110381;28;20085;-72
2024/03/01 07:38:05;;;;;;;11.45;8.32;;;11.90;99.90;;;;;;5101937;28;20089;-72
2024/03/01 07:40:33;;;;;;;11.75;9.30;;;12.00;99.90;;;;;;5071201;28;20498;-72
2024/03/01 07:43:01;;;;;;;11.63;7.55;;;12.10;99.90;;;;;;5108283;28;20040;-71
2024/03/01 07:45:28;;;;;;;12.63;8.98;;;12.10;99.90;;;;;;5107596;28;20039;-72
2024/03/01 07:47:56;;;;;;;10.32;7.63;;;11.90;99.90;;;;;;5108523;28;20452;-72
2024/03/01 07:50:23;;;;;;;11.80;8.02;;;11.90;99.90;;;;;;5107022;28;20040;-74
2024/03/01 07:52:51;;;;;;;11.70;8.40;;;12.00;99.90;;;;;;5111208;28;20063;-72
2024/03/01 07:55:19;;;;;;;9.95;7.80;;;12.00;99.90;;;;;;5104075;28;20131;-72
2024/03/01 07:57:48;;;;;;;10.38;7.82;;;12.10;99.90;;;;;;5111323;28;20512;-72
2024/03/01 08:00:16;;;;;;;13.57;8.90;;;12.00;99.90;;;;;;5092113;28;20092;-71
2024/03/01 08:02:44;;;;;;;11.52;7.93;;;12.00;99.90;;;;;;5107596;28;20076;-71
2024/03/01 08:05:11;;;;;;;11.48;7.90;;;12.20;99.90;;;;;;5092518;28;20131;-70
2024/03/01 08:07:56;;;;;;;14.13;8.73;;;12.20;99.90;;;;;;5092946;28;20043;-71
2024/03/01 08:10:25;;;;;;;10.85;7.78;;;12.40;99.90;;;;;;5075017;28;20490;-72
2024/03/01 08:12:52;;;;;;;10.00;7.53;;;12.30;99.90;;;;;;5107343;28;20036;-71
2024/03/01 08:15:28;;;;;;;9.98;7.60;;;12.30;99.90;;;;;;5092884;28;20595;-72
2024/03/01 08:17:56;;;;;;;11.10;7.78;;;12.40;99.90;;;;;;5085936;28;20040;-70
2024/03/01 08:20:28;;;;;;;11.18;8.95;;;12.60;99.90;;;;;;5109144;28;20137;-70
2024/03/01 08:22:58;;;;;;;12.00;7.57;;;12.50;99.90;;;;;;5110073;28;20050;-71
2024/03/01 08:25:25;;;;;;;10.40;7.78;;;12.40;99.90;;;;;;5106402;28;20077;-72
2024/03/01 08:27:57;;;;;;;10.75;7.63;;;12.30;99.90;;;;;;5107788;28;20043;-73
2024/03/01 08:30:46;;;;;;;10.85;8.27;;;12.40;99.90;;;;;;5080494;28;20051;-72
2024/03/01 08:33:19;;;;;;;10.85;7.70;;;12.40;99.90;;;;;;5096182;28;20050;-70
2024/03/01 08:35:48;;;;;;;10.63;7.60;;;12.30;99.90;;;;;;5110294;28;20043;-70
2024/03/01 08:38:42;;;;;;;8.90;6.97;;;12.40;99.90;;;;;;5088613;28;20480;-72
2024/03/01 08:41:13;;;;;;;9.60;7.88;;;12.50;99.90;;;;;;5064395;28;20131;-71
2024/03/01 08:43:42;;;;;;;10.35;7.40;;;12.40;99.90;;;;;;5092474;28;20036;-70
2024/03/01 08:46:30;;;;;;;12.43;7.07;;;12.40;99.90;;;;;;5107112;28;20405;-71
2024/03/01 08:49:21;;;;;;;10.43;7.05;;;12.40;99.90;;;;;;5086493;28;20097;-71
2024/03/01 08:51:49;;;;;;;8.30;6.50;;;12.50;99.90;;;;;;5106759;28;20036;-72
2024/03/01 08:54:20;;;;;;;8.77;6.75;;;12.30;99.90;;;;;;5088493;28;20140;-70
2024/03/01 08:57:05;;;;;;;10.35;7.13;;;12.40;99.90;;;;;;5104776;28;20089;-72
2024/03/01 08:59:44;;;;;;;9.77;7.22;;;12.50;99.90;;;;;;5109905;28;20031;-74
2024/03/01 09:02:26;;;;;;;9.02;6.43;;;12.50;99.90;;;;;;5107600;28;20141;-71
2024/03/01 09:04:54;;;;;;;8.45;6.57;;;12.60;99.90;;;;;;5105137;28;20032;-72
2024/03/01 09:07:30;;;;;;;8.35;6.05;;;12.60;99.90;;;;;;5109442;28;20482;-70
2024/03/01 09:10:19;;;;;;;10.55;6.47;;;12.50;99.90;;;;;;5086162;28;20062;-75
2024/03/01 09:12:46;;;;;;;8.13;6.30;;;12.60;99.90;;;;;;5105154;28;20534;-72
2024/03/01 09:15:21;;;;;;;9.25;6.35;;;12.60;99.90;;;;;;5109396;28;20398;-71
2024/03/01 09:17:49;;;;;;;10.55;6.65;;;12.70;99.90;;;;;;5105135;28;20043;-73
2024/03/01 09:20:41;;;;;;;7.70;6.00;;;12.70;99.90;;;;;;5110427;28;20036;-73
2024/03/01 09:23:15;;;;;;;7.82;5.97;;;12.80;99.90;;;;;;5106369;28;20044;-72
2024/03/01 09:25:59;;;;;;;7.18;5.03;;;12.70;99.90;;;;;;5104703;28;20082;-72
2024/03/01 09:28:26;;;;;;;7.07;5.00;;;12.60;99.90;;;;;;5093629;28;20055;-71
2024/03/01 09:30:54;;;;;;;7.95;6.10;;;12.70;99.90;;;;;;5113025;28;20047;-73
2024/03/01 09:33:24;;;;;;;7.75;5.55;;;12.90;99.90;;;;;;5109215;28;20036;-72
2024/03/01 09:35:51;;;;;;;7.87;5.17;;;13.00;99.80;;;;;;5114388;28;20036;-70
2024/03/01 09:38:21;;;;;;;7.68;5.38;;;13.00;99.80;;;;;;5106916;28;20117;-72
2024/03/01 09:40:53;;;;;;;8.03;5.27;;;12.80;99.90;;;;;;5111904;28;20040;-70
2024/03/01 09:44:17;;;;;;;9.68;5.00;;;12.60;99.90;;;;;;5110449;28;20658;-73
2024/03/01 09:46:59;;;;;;;9.10;5.80;;;12.80;99.90;;;;;;5110163;28;20036;-71
2024/03/01 09:49:54;;;;;;;10.05;5.13;;;12.80;99.90;;;;;;5110209;28;20089;-72
2024/03/01 09:52:49;;;;;;;8.68;5.15;;;12.80;99.80;;;;;;5112218;28;20446;-71
2024/03/01 09:55:32;;;;;;;9.15;5.75;;;12.80;99.90;;;;;;5085305;28;20449;-73
2024/03/01 09:58:18;;;;;;;9.68;5.50;;;12.80;99.90;;;;;;5111400;28;20458;-73
2024/03/01 10:00:57;;;;;;;10.00;5.50;;;12.80;99.40;;;;;;5092315;28;20034;-72
2024/03/01 10:03:48;;;;;;;8.07;4.95;;;12.90;99.30;;;;;;5092056;28;20040;-71
2024/03/01 10:06:48;;;;;;;8.32;4.50;;;12.90;98.70;;;;;;5093301;28;20124;-71
2024/03/01 10:09:24;;;;;;;6.10;4.95;;;12.80;98.70;;;;;;5108447;28;20043;-72
2024/03/01 10:12:09;;;;;;;6.45;4.60;;;12.80;98.70;;;;;;5109583;28;20043;-72
2024/03/01 10:14:56;;;;;;;5.95;3.97;;;12.90;99.00;;;;;;5092231;28;20045;-72
2024/03/01 10:17:42;;;;;;;;;;;13.10;98.00;;;;;;5108119;28;20094;-70
2024/03/01 10:20:37;;;;;;;6.68;4.15;;;12.90;98.10;;;;;;5107876;28;19926;-72
2024/03/01 10:23:16;;;;;;;6.05;4.40;;;12.90;98.20;;;;;;5113609;28;20139;-72
2024/03/01 10:25:55;;;;;;;7.15;4.85;;;13.10;97.80;;;;;;5092086;28;20051;-72
2024/03/01 10:29:01;;;;;;;6.40;4.40;;;13.20;97.90;;;;;;5111156;28;20043;-72
2024/03/01 10:31:46;;;;;;;5.25;3.92;;;13.30;97.00;;;;;;5112708;28;20036;-71
2024/03/01 10:34:31;;;;;;;6.70;4.40;;;13.20;97.30;;;;;;5090382;28;20044;-72
2024/03/01 10:37:20;;;;;;;5.22;4.38;;;13.10;97.70;;;;;;5113148;28;20085;-72
2024/03/01 10:40:04;;;;;;;8.85;4.15;;;12.90;98.30;;;;;;5102551;28;20042;-71
2024/03/01 10:42:40;;;;;;;6.65;4.03;;;13.00;98.40;;;;;;5109201;28;20085;-71
2024/03/01 10:45:17;;;;;;;5.35;4.22;;;13.20;97.60;;;;;;5105344;28;20506;-71
2024/03/01 10:47:46;;;;;;;5.63;3.65;;;13.40;97.50;;;;;;5109639;28;20058;-72
2024/03/01 10:50:35;;;;;;;6.53;3.85;;;13.30;97.40;;;;;;5107345;28;20047;-72
2024/03/01 10:53:07;;;;;;;7.55;3.85;;;13.50;97.70;;;;;;5092298;28;20486;-71
2024/03/01 10:55:38;;;;;;;5.97;3.55;;;13.30;97.10;;;;;;5109033;28;20040;-72
2024/03/01 10:58:16;;;;;;;4.70;3.30;;;13.10;97.30;;;;;;5104838;28;20079;-71
2024/03/01 11:00:57;;;;;;;6.78;3.40;;;13.20;97.50;;;;;;5089237;28;20035;-72
2024/03/01 11:03:57;;;;;;;5.53;3.85;;;13.10;97.50;;;;;;5091673;28;20055;-73
2024/03/01 11:06:46;;;;;;;4.80;3.63;;;13.00;97.90;;;;;;5100518;28;20408;-73
2024/03/01 11:09:36;;;;;;;6.45;3.78;;;13.20;97.80;;;;;;5107025;28;20051;-74
2024/03/01 11:12:10;;;;;;;5.55;3.30;;;13.20;97.70;;;;;;5086195;28;20032;-73
2024/03/01 11:14:46;;;;;;;6.55;3.40;;;13.40;97.60;;;;;;5087309;28;20055;-72
2024/03/01 11:17:15;;;;;;;6.03;3.33;;;13.30;97.80;;;;;;5104616;28;20386;-73
2024/03/01 11:19:47;;;;;;;6.78;3.60;;;13.30;97.80;;;;;;5109757;28;20403;-73
2024/03/01 11:22:21;;;;;;;8.05;5.18;;;13.30;97.30;;;;;;5091365;28;20058;-73
2024/03/01 11:25:12;;;;;;;6.15;3.75;;;13.40;97.60;;;;;;5090246;28;20042;-73
2024/03/01 11:27:48;;;;;;;8.00;3.60;;;13.60;97.30;;;;;;5098781;28;20115;-72
2024/03/01 11:30:22;;;;;;;5.78;3.70;;;13.30;97.00;;;;;;5087597;28;20052;-72
2024/03/01 11:33:01;;;;;;;5.25;3.55;;;13.10;97.20;;;;;;5090061;28;20032;-72
2024/03/01 11:35:29;;;;;;;5.47;3.55;;;13.00;97.20;;;;;;5090691;28;20043;-72
2024/03/01 11:38:31;;;;;;;5.50;3.88;;;13.20;96.80;;;;;;5108206;28;20040;-72
2024/03/01 11:41:30;;;;;;;4.80;3.28;;;13.50;96.40;;;;;;5090210;28;20043;-73
2024/03/01 11:44:12;;;;;;;7.57;3.90;;;13.60;96.70;;;;;;5077043;28;20039;-74
2024/03/01 11:46:49;;;;;;;6.60;4.25;;;13.80;96.90;;;;;;5086999;28;20481;-72
2024/03/01 11:49:59;;;;;;;7.60;4.28;;;13.60;97.00;;;;;;5105206;28;20032;-73
2024/03/01 11:53:02;;;;;;;7.38;4.85;;;13.60;97.20;;;;;;5109269;28;20036;-71
2024/03/01 11:56:07;;;;;;;5.78;4.20;;;13.60;97.90;;;;;;5105308;28;20105;-73
2024/03/01 11:58:53;;;;;;;10.02;4.65;;;13.50;97.50;;;;;;5088597;28;20043;-71
2024/03/01 12:02:01;;;;;;;6.10;4.15;;;13.80;96.80;;;;;;5100894;28;20058;-71
2024/03/01 12:04:36;;;;;;;5.50;4.18;;;13.50;96.70;;;;;;5100840;28;20075;-72
2024/03/01 12:07:25;;;;;;;6.43;3.90;;;13.80;96.50;;;;;;5111023;28;20063;-72
2024/03/01 12:10:18;;;;;;;7.53;3.58;;;13.80;95.50;;;;;;5083482;28;20044;-71
2024/03/01 12:12:52;;;;;;;6.03;3.50;;;13.70;95.60;;;;;;5089277;28;20383;-73
2024/03/01 12:15:31;;;;;;;4.47;3.50;;;13.70;95.30;;;;;;5110945;28;20800;-70
2024/03/01 12:18:24;;;;;;;5.65;3.40;;;13.70;95.50;;;;;;5091711;28;20048;-70
2024/03/01 12:21:16;;;;;;;5.15;3.88;;;14.00;95.40;;;;;;5103613;28;20056;-70
2024/03/01 12:24:12;;;;;;;4.50;3.50;;;14.90;94.60;;;;;;5096476;28;20043;-71
2024/03/01 12:27:09;;;;;;;5.75;3.60;;;15.60;93.70;;;;;;5100884;28;20059;-70
2024/03/01 12:30:03;;;;;;;5.88;3.83;;;15.20;93.70;;;;;;5081269;28;20040;-71
2024/03/01 12:33:11;;;;;;;5.80;3.60;;;14.80;94.10;;;;;;5100366;28;20051;-71
2024/03/01 12:36:06;;;;;;;6.40;3.80;;;14.40;95.30;;;;;;5066214;28;20056;-71
2024/03/01 12:38:39;;;;;;;5.70;3.72;;;14.40;94.60;;;;;;5090647;28;20585;-70
2024/03/01 12:41:19;;;;;;;5.68;3.80;;;14.20;95.10;;;;;;5104889;28;20042;-71
2024/03/01 12:44:02;;;;;;;;;;;14.20;95.20;;;;;;5087099;28;20036;-69
2024/03/01 12:47:12;;;;;;;7.40;4.05;;;14.20;95.10;;;;;;5102482;28;19920;-73
2024/03/01 12:50:02;;;;;;;5.47;4.20;;;14.30;94.90;;;;;;5104934;28;20028;-70
2024/03/01 12:52:49;;;;;;;6.15;4.25;;;13.50;96.10;;;;;;5104127;28;20027;-70
2024/03/01 12:55:20;;;;;;;8.77;4.85;;;13.20;96.10;;;;;;5070195;28;20044;-71
2024/03/01 12:58:04;;;;;;;5.75;4.07;;;13.10;96.60;;;;;;5082318;28;20043;-71
2024/03/01 13:00:57;;;;;;;6.70;4.50;;;12.90;97.50;;;;;;5105101;28;20421;-70
2024/03/01 13:03:52;;;;;;;6.47;4.72;;;12.80;98.30;;;;;;5104403;28;20036;-71
2024/03/01 13:06:21;;;;;;;7.28;4.65;;;13.00;98.40;;;;;;5100076;28;20052;-70
2024/03/01 13:08:59;;;;;;;5.90;4.82;;;13.00;98.30;;;;;;5086243;28;20031;-71
2024/03/01 13:11:29;;;;;;;7.28;4.65;;;13.10;98.10;;;;;;5081710;28;20567;-70
2024/03/01 13:14:09;;;;;;;;;;;13.30;97.80;;;;;;5105933;28;20717;-70